Time;durP1;ratioP1;P1;durP2;ratioP2;P2;SDS_P1;SDS_P2;PMS_P1;PMS_P2;Temp;Humidity;BMP_temperature;BMP_pressure;BME280_temperature;BME280_humidity;BME280_pressure;Samples;Min_cycle;Max_cycle;Signal;HPM_P1;HPM_P2
2023/08/02 00:01:16;;;;;;;3.73;2.90;;;;;;;16.95;88.77;99586.47;4925008;29;20436;-80
2023/08/02 00:03:46;;;;;;;3.80;2.70;;;;;;;16.94;88.65;99579.34;4925436;29;20481;-81
2023/08/02 00:06:35;;;;;;;6.20;3.30;;;;;;;16.87;89.02;99584.28;4923890;29;20453;-82
2023/08/02 00:09:04;;;;;;;6.70;3.30;;;;;;;16.91;89.11;99585.38;4924976;29;20465;-83
2023/08/02 00:11:33;;;;;;;4.80;3.83;;;;;;;16.84;90.23;99579.41;4926219;29;20451;-80
2023/08/02 00:14:03;;;;;;;5.80;3.00;;;;;;;16.84;89.68;99573.94;4926388;29;20416;-80
2023/08/02 00:16:33;;;;;;;3.67;2.70;;;;;;;16.80;89.57;99572.81;4933768;29;20461;-80
2023/08/02 00:19:02;;;;;;;6.50;3.83;;;;;;;16.74;89.86;99571.19;4937360;29;20501;-81
2023/08/02 00:21:32;;;;;;;6.50;4.00;;;;;;;16.70;90.25;99577.50;4928843;29;20408;-80
2023/08/02 00:24:01;;;;;;;4.07;3.27;;;;;;;16.66;89.75;99573.63;4927068;29;20453;-81
2023/08/02 00:26:30;;;;;;;4.37;2.60;;;;;;;16.63;90.31;99577.75;4927861;29;20433;-81
2023/08/02 00:28:59;;;;;;;3.60;2.60;;;;;;;16.65;89.89;99572.84;4929307;29;20445;-80
2023/08/02 00:31:29;;;;;;;3.80;3.27;;;;;;;16.70;90.16;99578.28;4933251;29;20453;-79
2023/08/02 00:34:00;;;;;;;5.00;3.70;;;;;;;16.76;89.44;99581.84;4927862;29;20460;-80
2023/08/02 00:36:29;;;;;;;10.80;4.50;;;;;;;16.80;88.52;99583.75;4905549;29;20400;-82
2023/08/02 00:38:58;;;;;;;7.40;6.30;;;;;;;16.86;87.48;99588.13;4928439;29;20476;-82
2023/08/02 00:41:27;;;;;;;11.40;7.57;;;;;;;16.78;88.46;99588.69;4925716;29;20476;-82
2023/08/02 00:43:57;;;;;;;8.80;7.87;;;;;;;16.73;88.90;99590.59;4929214;29;20467;-81
2023/08/02 00:46:27;;;;;;;11.27;9.57;;;;;;;16.80;87.66;99600.13;4934894;29;20426;-81
2023/08/02 00:48:57;;;;;;;17.60;10.77;;;;;;;16.72;88.59;99597.97;4918011;29;20449;-80
2023/08/02 00:51:30;;;;;;;10.70;9.60;;;;;;;16.63;88.82;99594.13;4904861;29;20476;-81
2023/08/02 00:54:02;;;;;;;16.17;10.80;;;;;;;16.63;88.24;99596.88;4904965;29;20446;-81
2023/08/02 00:56:32;;;;;;;14.63;10.90;;;;;;;16.56;88.21;99593.56;4930854;29;20453;-80
2023/08/02 00:59:01;;;;;;;10.90;8.93;;;;;;;16.52;88.63;99597.91;4929244;29;20465;-80
2023/08/02 01:01:31;;;;;;;12.63;8.83;;;;;;;16.49;88.29;99593.84;4905785;29;20449;-80
2023/08/02 01:04:00;;;;;;;9.63;7.57;;;;;;;16.50;88.22;99597.38;4907228;29;20462;-81
2023/08/02 01:06:37;;;;;;;8.73;7.60;;;;;;;16.51;88.01;99591.63;4906978;29;20825;-82
2023/08/02 01:09:12;;;;;;;7.80;6.60;;;;;;;16.63;86.97;99593.31;4907324;29;20773;-80
2023/08/02 01:11:47;;;;;;;12.10;5.63;;;;;;;16.67;86.38;99591.69;4908458;29;20890;-80
2023/08/02 01:14:20;;;;;;;8.67;6.10;;;;;;;16.71;85.77;99585.38;4907971;29;20481;-80
2023/08/02 01:16:51;;;;;;;7.77;5.10;;;;;;;16.70;85.87;99594.66;4908022;29;20427;-80
2023/08/02 01:19:22;;;;;;;7.07;5.33;;;;;;;16.64;85.59;99590.31;4898071;29;20481;-80
2023/08/02 01:21:53;;;;;;;9.03;4.90;;;;;;;16.68;85.75;99594.16;4890009;29;20484;-81
2023/08/02 01:24:26;;;;;;;5.43;4.40;;;;;;;16.79;85.03;99603.16;4904996;29;20433;-79
2023/08/02 01:26:56;;;;;;;7.50;4.90;;;;;;;16.78;85.09;99594.13;4908256;29;20434;-79
2023/08/02 01:29:28;;;;;;;5.40;4.17;;;;;;;16.69;86.03;99601.25;4907477;29;21051;-80
2023/08/02 01:31:59;;;;;;;4.97;3.83;;;;;;;16.71;86.21;99587.31;4908736;29;20436;-81
2023/08/02 01:34:28;;;;;;;5.20;3.90;;;;;;;16.79;84.80;99598.53;4923980;29;20452;-78
2023/08/02 01:36:59;;;;;;;9.13;3.90;;;;;;;16.79;84.82;99589.50;4926827;29;20446;-80
2023/08/02 01:39:28;;;;;;;5.30;3.90;;;;;;;16.78;84.78;99596.88;4919660;29;20909;-81
2023/08/02 01:41:57;;;;;;;4.33;2.83;;;;;;;16.73;84.90;99591.41;4910308;29;20468;-82
2023/08/02 01:44:26;;;;;;;4.60;2.80;;;;;;;16.78;84.93;99585.94;4918917;29;20451;-81
2023/08/02 01:46:55;;;;;;;8.57;3.87;;;;;;;16.83;84.36;99588.69;4930249;29;20431;-80
2023/08/02 01:49:25;;;;;;;4.50;3.43;;;;;;;16.94;83.56;99584.81;4926350;29;20803;-81
2023/08/02 01:51:54;;;;;;;8.50;3.00;;;;;;;16.87;83.88;99578.84;4909070;29;20436;-83
2023/08/02 01:54:24;;;;;;;5.97;3.40;;;;;;;16.90;84.30;99589.19;4921009;29;20465;-83
2023/08/02 01:56:53;;;;;;;4.70;2.93;;;;;;;16.87;84.04;99589.75;4906819;29;20866;-80
2023/08/02 01:59:22;;;;;;;5.57;3.13;;;;;;;16.95;83.02;99591.09;4915706;29;20561;-81
2023/08/02 02:01:51;;;;;;;6.20;2.90;;;;;;;16.91;83.56;99593.56;4925768;29;20482;-80
2023/08/02 02:04:20;;;;;;;4.63;2.93;;;;;;;16.88;83.70;99591.41;4926322;29;20444;-82
2023/08/02 02:06:49;;;;;;;3.87;3.10;;;;;;;16.85;83.85;99593.84;4931572;29;20411;-80
2023/08/02 02:09:19;;;;;;;5.47;2.90;;;;;;;16.86;83.66;99590.84;4936371;29;20446;-83
2023/08/02 02:11:49;;;;;;;3.43;3.00;;;;;;;16.83;84.42;99594.13;4931596;29;20408;-82
2023/08/02 02:14:18;;;;;;;4.10;2.57;;;;;;;16.81;84.05;99595.50;4925478;29;20444;-80
2023/08/02 02:16:47;;;;;;;4.93;2.60;;;;;;;16.83;84.57;99591.41;4910762;29;20501;-82
2023/08/02 02:19:16;;;;;;;4.03;2.77;;;;;;;16.92;83.84;99584.28;4908963;29;20486;-80
2023/08/02 02:21:45;;;;;;;4.37;3.47;;;;;;;16.85;84.30;99586.47;4913449;29;20437;-80
2023/08/02 02:24:14;;;;;;;8.43;3.70;;;;;;;16.77;84.89;99589.75;4909784;29;20437;-80
2023/08/02 02:26:43;;;;;;;5.80;3.33;;;;;;;16.80;84.99;99588.38;4915791;29;20445;-81
2023/08/02 02:29:15;;;;;;;7.83;2.90;;;;;;;16.79;85.56;99586.78;4906863;29;20437;-80
2023/08/02 02:31:45;;;;;;;5.13;3.10;;;;;;;16.87;84.75;99589.75;4908115;29;20389;-80
2023/08/02 02:34:14;;;;;;;5.83;2.63;;;;;;;16.82;84.91;99592.50;4907276;29;20504;-81
2023/08/02 02:36:44;;;;;;;4.37;2.60;;;;;;;16.89;85.06;99592.22;4914980;29;20421;-81
2023/08/02 02:39:13;;;;;;;6.47;3.00;;;;;;;16.83;84.99;99588.69;4910326;29;20466;-80
2023/08/02 02:41:42;;;;;;;3.07;2.50;;;;;;;16.87;85.11;99591.66;4907291;29;20431;-80
2023/08/02 02:44:11;;;;;;;3.20;2.37;;;;;;;16.79;85.22;99587.59;4906728;29;20925;-80
2023/08/02 02:46:41;;;;;;;3.20;2.90;;;;;;;16.81;85.00;99585.38;4905151;29;20421;-80
2023/08/02 02:49:11;;;;;;;5.33;3.40;;;;;;;16.81;85.58;99590.03;4906387;29;20838;-81
2023/08/02 02:51:40;;;;;;;5.10;3.17;;;;;;;16.74;85.60;99582.13;4909090;29;20489;-81
2023/08/02 02:54:08;;;;;;;5.60;2.77;;;;;;;16.77;85.87;99580.75;4910404;29;20519;-81
2023/08/02 02:56:37;;;;;;;3.80;3.20;;;;;;;16.73;85.62;99588.69;4906716;29;20485;-78
2023/08/02 02:59:06;;;;;;;6.40;3.47;;;;;;;16.68;85.97;99580.50;4905355;29;20444;-80
2023/08/02 03:01:35;;;;;;;6.53;2.97;;;;;;;16.65;86.76;99580.22;4905758;29;20439;-81
2023/08/02 03:04:06;;;;;;;5.10;3.33;;;;;;;16.56;87.35;99587.25;4920246;29;20425;-79
2023/08/02 03:06:35;;;;;;;4.77;3.40;;;;;;;16.53;88.06;99583.19;4926075;29;20533;-81
2023/08/02 03:09:04;;;;;;;4.23;3.27;;;;;;;16.43;88.00;99588.63;4930813;29;20408;-81
2023/08/02 03:11:33;;;;;;;4.97;3.00;;;;;;;16.38;88.17;99588.63;4924905;29;20437;-80
2023/08/02 03:14:03;;;;;;;3.33;2.97;;;;;;;16.27;88.93;99589.69;4918158;29;20439;-81
2023/08/02 03:16:32;;;;;;;8.43;2.63;;;;;;;16.14;90.24;99584.78;4914536;29;20469;-80
2023/08/02 03:19:01;;;;;;;5.87;3.00;;;;;;;16.00;90.66;99585.28;4927181;29;20912;-80
2023/08/02 03:21:31;;;;;;;3.63;2.83;;;;;;;16.06;90.22;99583.41;4929144;29;20448;-80
2023/08/02 03:24:00;;;;;;;4.60;3.43;;;;;;;15.97;90.45;99588.56;4933931;29;20491;-80
2023/08/02 03:26:29;;;;;;;7.57;3.73;;;;;;;16.00;91.38;99585.28;4932779;29;20511;-80
2023/08/02 03:28:58;;;;;;;3.90;3.07;;;;;;;15.87;91.96;99583.09;4936819;29;20414;-79
2023/08/02 03:31:27;;;;;;;5.07;2.90;;;;;;;15.81;92.84;99586.06;4925101;29;20426;-80
2023/08/02 03:33:56;;;;;;;8.63;3.20;;;;;;;15.71;93.45;99584.13;4937238;29;20461;-81
2023/08/02 03:36:25;;;;;;;4.73;3.80;;;;;;;15.72;93.93;99584.94;4939122;29;20520;-81
2023/08/02 03:38:55;;;;;;;6.60;3.63;;;;;;;15.74;94.08;99589.03;4937060;29;20488;-81
2023/08/02 03:41:24;;;;;;;5.50;3.20;;;;;;;15.82;93.47;99588.53;4938381;29;20434;-81
2023/08/02 03:43:53;;;;;;;3.20;2.77;;;;;;;15.88;92.96;99592.88;4972399;23;20501;-78
2023/08/02 03:46:22;;;;;;;7.03;3.33;;;;;;;15.91;93.41;99589.66;4888078;29;20433;-78
2023/08/02 03:48:51;;;;;;;5.47;3.93;;;;;;;16.08;92.58;99592.94;4882054;29;20412;-79
2023/08/02 03:51:20;;;;;;;5.50;3.33;;;;;;;16.32;90.93;99590.53;4890871;29;20443;-79
2023/08/02 03:53:49;;;;;;;10.33;4.40;;;;;;;16.38;90.12;99585.91;4904177;29;20513;-79
2023/08/02 03:56:20;;;;;;;4.20;3.13;;;;;;;16.49;90.00;99593.84;4912953;29;20413;-79
2023/08/02 03:58:49;;;;;;;3.20;2.77;;;;;;;16.73;88.76;99596.06;4890684;29;20422;-80
2023/08/02 04:01:18;;;;;;;4.93;3.43;;;;;;;16.86;87.60;99596.31;4914130;29;20438;-79
2023/08/02 04:03:48;;;;;;;4.43;3.40;;;;;;;16.90;87.78;99600.13;4891908;29;20540;-80
2023/08/02 04:06:17;;;;;;;6.73;3.97;;;;;;;17.64;84.95;99599.44;4905988;29;20404;-80
2023/08/02 04:08:46;;;;;;;7.13;3.77;;;;;;;18.47;79.55;99596.78;4915005;29;20514;-79
2023/08/02 04:11:15;;;;;;;6.07;3.40;;;;;;;18.20;79.42;99597.22;4899183;29;20402;-80
2023/08/02 04:13:45;;;;;;;5.93;3.37;;;;;;;17.93;81.22;99606.97;4895065;29;20444;-78
2023/08/02 04:16:15;;;;;;;4.10;3.50;;;;;;;17.70;82.61;99606.53;4884960;29;20406;-79
2023/08/02 04:18:44;;;;;;;4.07;3.63;;;;;;;17.46;84.56;99605.50;4888578;29;20435;-79
2023/08/02 04:21:19;;;;;;;4.40;3.83;;;;;;;17.21;85.58;99600.09;4880525;29;20409;-77
2023/08/02 04:23:53;;;;;;;3.73;3.33;;;;;;;17.12;86.69;99597.09;4888291;29;20452;-78
2023/08/02 04:26:22;;;;;;;4.63;4.13;;;;;;;16.99;87.32;99602.31;4892909;29;20486;-77
2023/08/02 04:28:53;;;;;;;9.00;4.10;;;;;;;16.95;88.10;99602.03;4892582;29;20413;-77
2023/08/02 04:31:22;;;;;;;5.07;4.10;;;;;;;16.93;87.41;99599.59;4903517;29;20409;-80
2023/08/02 04:33:52;;;;;;;9.73;4.10;;;;;;;16.89;87.69;99606.69;4877414;29;20485;-78
2023/08/02 04:36:21;;;;;;;6.20;4.20;;;;;;;16.88;87.65;99613.25;4884868;29;20409;-80
2023/08/02 04:38:53;;;;;;;4.33;3.40;;;;;;;17.00;87.59;99603.94;4875037;29;20413;-78
2023/08/02 04:41:22;;;;;;;4.97;3.43;;;;;;;17.00;87.26;99599.28;4881010;29;20435;-78
2023/08/02 04:43:53;;;;;;;5.00;4.27;;;;;;;17.14;86.98;99599.53;4888988;29;20487;-79
2023/08/02 04:46:23;;;;;;;5.87;4.40;;;;;;;17.05;87.48;99596.56;4878958;29;20812;-79
2023/08/02 04:48:52;;;;;;;4.03;3.63;;;;;;;17.12;86.79;99596.28;4897868;29;20413;-79
2023/08/02 04:51:21;;;;;;;4.80;3.83;;;;;;;17.10;87.01;99593.81;4906186;29;20434;-80
2023/08/02 04:53:50;;;;;;;5.53;4.60;;;;;;;17.15;86.57;99595.72;4897141;29;20505;-78
2023/08/02 04:56:19;;;;;;;8.50;4.37;;;;;;;17.23;85.96;99592.44;4881629;29;20439;-79
2023/08/02 04:58:48;;;;;;;5.50;4.73;;;;;;;17.21;86.07;99591.88;4890748;29;20481;-79
2023/08/02 05:01:19;;;;;;;7.87;3.80;;;;;;;17.24;86.32;99596.78;4881821;29;20470;-80
2023/08/02 05:03:48;;;;;;;11.37;4.20;;;;;;;17.30;85.68;99601.16;4878084;29;20441;-79
2023/08/02 05:06:17;;;;;;;8.70;4.07;;;;;;;17.30;85.96;99598.44;4893960;29;20518;-80
2023/08/02 05:08:47;;;;;;;7.83;4.30;;;;;;;17.24;86.32;99592.16;4887027;29;20521;-79
2023/08/02 05:11:16;;;;;;;4.17;3.60;;;;;;;17.34;85.90;99589.38;4885594;29;20450;-80
2023/08/02 05:13:46;;;;;;;4.20;3.63;;;;;;;17.34;86.17;99588.56;4882761;29;20475;-79
2023/08/02 05:16:15;;;;;;;4.43;3.97;;;;;;;17.44;85.60;99582.25;4890615;29;20497;-78
2023/08/02 05:18:46;;;;;;;7.97;4.63;;;;;;;17.50;85.72;99586.59;4885619;29;20462;-77
2023/08/02 05:21:15;;;;;;;6.53;5.87;;;;;;;17.49;84.52;99584.97;4897740;29;20462;-77
2023/08/02 05:23:45;;;;;;;5.80;4.77;;;;;;;17.52;84.88;99585.25;4883834;29;20458;-79
2023/08/02 05:26:14;;;;;;;4.27;3.80;;;;;;;17.74;83.83;99591.19;4886124;29;20410;-78
2023/08/02 05:28:43;;;;;;;7.10;4.17;;;;;;;17.86;83.91;99590.06;4896462;29;20711;-78
2023/08/02 05:31:13;;;;;;;6.37;4.70;;;;;;;17.89;83.15;99581.28;4882046;29;20410;-78
2023/08/02 05:33:45;;;;;;;5.97;4.87;;;;;;;18.00;82.92;99580.13;4883156;29;20429;-79
2023/08/02 05:36:15;;;;;;;6.93;4.53;;;;;;;18.09;82.16;99579.25;4889160;29;20439;-78
2023/08/02 05:38:44;;;;;;;7.77;5.13;;;;;;;18.13;81.91;99584.97;4889635;29;20416;-78
2023/08/02 05:41:14;;;;;;;9.47;4.20;;;;;;;18.22;81.52;99584.06;4881643;29;20463;-79
2023/08/02 05:43:44;;;;;;;4.83;3.73;;;;;;;18.25;80.99;99578.03;4888877;29;20453;-79
2023/08/02 05:46:13;;;;;;;4.90;3.83;;;;;;;18.28;80.19;99582.13;4882310;29;20455;-79
2023/08/02 05:48:43;;;;;;;9.40;3.33;;;;;;;18.34;80.36;99580.19;4882650;29;20913;-79
2023/08/02 05:51:14;;;;;;;6.67;4.07;;;;;;;18.54;79.07;99586.34;4890667;29;20413;-79
2023/08/02 05:53:43;;;;;;;7.13;3.87;;;;;;;18.55;78.81;99592.63;4888709;29;20487;-79
2023/08/02 05:56:12;;;;;;;5.80;4.40;;;;;;;18.63;78.90;99595.59;4895810;29;20482;-79
2023/08/02 05:58:41;;;;;;;6.10;4.03;;;;;;;18.73;77.75;99589.22;4882694;29;20461;-80
2023/08/02 06:01:10;;;;;;;9.17;4.10;;;;;;;18.76;78.76;99591.38;4887621;29;20476;-80
2023/08/02 06:03:40;;;;;;;5.77;3.93;;;;;;;18.77;77.27;99587.53;4890888;29;20465;-79
2023/08/02 06:06:09;;;;;;;6.20;4.33;;;;;;;19.04;77.39;99589.75;4917232;29;20439;-79
2023/08/02 06:08:40;;;;;;;4.93;3.70;;;;;;;19.27;75.74;99585.38;4901323;29;20449;-81
2023/08/02 06:11:10;;;;;;;3.90;3.60;;;;;;;19.37;75.07;99577.88;4903116;29;20562;-80
2023/08/02 06:13:40;;;;;;;4.20;3.80;;;;;;;19.69;73.24;99579.19;4902701;29;20422;-80
2023/08/02 06:16:09;;;;;;;6.23;5.03;;;;;;;20.00;71.93;99587.81;4903482;29;20390;-82
2023/08/02 06:18:38;;;;;;;6.43;4.20;;;;;;;19.85;71.22;99599.81;4903515;29;20422;-81
2023/08/02 06:21:07;;;;;;;7.77;3.40;;;;;;;19.87;71.88;99583.88;4903106;29;20451;-78
2023/08/02 06:23:36;;;;;;;4.70;3.40;;;;;;;19.81;71.62;99583.13;4896714;29;20472;-78
2023/08/02 06:26:07;;;;;;;7.07;3.70;;;;;;;19.96;71.56;99584.84;4889184;29;20739;-79
2023/08/02 06:28:36;;;;;;;4.07;3.20;;;;;;;20.09;71.08;99577.81;4895470;29;20988;-78
2023/08/02 06:31:05;;;;;;;4.80;4.00;;;;;;;20.01;71.08;99587.53;4886837;29;20772;-79
2023/08/02 06:33:35;;;;;;;4.30;3.30;;;;;;;19.83;71.46;99580.09;4894127;29;20444;-79
2023/08/02 06:36:04;;;;;;;5.37;2.90;;;;;;;19.57;72.50;99587.00;4898670;29;20474;-78
2023/08/02 06:38:34;;;;;;;7.80;3.40;;;;;;;19.77;72.21;99586.75;4898819;29;20461;-78
2023/08/02 06:41:04;;;;;;;3.87;3.00;;;;;;;19.84;71.99;99590.78;4897181;29;20462;-79
2023/08/02 06:43:34;;;;;;;6.07;3.40;;;;;;;19.64;72.25;99582.81;4874921;29;20472;-79
2023/08/02 06:46:04;;;;;;;3.60;3.30;;;;;;;19.58;73.20;99585.91;4894517;29;20792;-78
2023/08/02 06:48:33;;;;;;;4.07;3.67;;;;;;;19.76;72.82;99585.09;4891758;29;20409;-78
2023/08/02 06:51:02;;;;;;;7.67;5.13;;;;;;;19.87;71.95;99587.44;4873091;29;20443;-79
2023/08/02 06:53:31;;;;;;;5.83;3.50;;;;;;;19.78;71.99;99583.72;4880769;29;20441;-79
2023/08/02 06:56:00;;;;;;;7.13;4.03;;;;;;;19.88;72.26;99580.03;4887487;29;20466;-78
2023/08/02 06:58:29;;;;;;;6.70;3.87;;;;;;;20.08;71.92;99570.69;4881982;29;20439;-79
2023/08/02 07:01:00;;;;;;;16.17;4.17;;;;;;;20.17;70.71;99569.72;4890144;29;20449;-79
2023/08/02 07:03:30;;;;;;;19.10;13.53;;;;;;;20.35;69.43;99568.09;4887175;29;20537;-78
2023/08/02 07:05:59;;;;;;;11.97;7.27;;;;;;;20.24;69.44;99559.16;4882667;29;20516;-80
2023/08/02 07:08:28;;;;;;;6.03;3.60;;;;;;;20.24;69.19;99559.16;4890909;29;20548;-80
2023/08/02 07:10:57;;;;;;;6.80;3.57;;;;;;;20.13;68.46;99554.97;4881838;29;20431;-79
2023/08/02 07:13:26;;;;;;;5.60;3.70;;;;;;;20.38;67.68;99540.84;4890785;29;20440;-80
2023/08/02 07:15:55;;;;;;;4.53;3.17;;;;;;;20.55;66.49;99539.50;4896641;29;20816;-79
2023/08/02 07:18:26;;;;;;;7.00;4.30;;;;;;;20.66;66.51;99544.53;4901781;29;20420;-77
2023/08/02 07:20:55;;;;;;;5.30;4.00;;;;;;;20.68;65.96;99536.78;4889052;29;20482;-78
2023/08/02 07:23:24;;;;;;;7.07;4.30;;;;;;;20.60;65.60;99533.91;4890507;29;20438;-78
2023/08/02 07:25:53;;;;;;;5.40;3.47;;;;;;;20.79;65.26;99540.16;4879075;29;20952;-79
2023/08/02 07:28:23;;;;;;;3.30;2.93;;;;;;;20.76;64.74;99538.84;4897408;29;20449;-79
2023/08/02 07:30:52;;;;;;;4.00;3.30;;;;;;;20.70;64.76;99536.47;4879971;29;20501;-79
2023/08/02 07:33:21;;;;;;;4.03;3.50;;;;;;;20.92;65.03;99530.31;4894611;29;20484;-78
2023/08/02 07:35:52;;;;;;;6.67;3.10;;;;;;;21.07;63.09;99522.59;4897165;29;20976;-78
2023/08/02 07:38:21;;;;;;;3.80;3.03;;;;;;;21.30;63.07;99525.50;4897471;29;20416;-80
2023/08/02 07:40:50;;;;;;;4.40;2.77;;;;;;;21.66;60.15;99518.94;4892130;29;20417;-78
2023/08/02 07:43:19;;;;;;;5.30;3.13;;;;;;;21.75;58.79;99530.03;4886210;29;21010;-78
2023/08/02 07:45:48;;;;;;;4.13;3.67;;;;;;;21.75;59.05;99537.47;4901093;29;20937;-78
2023/08/02 07:48:17;;;;;;;4.73;3.13;;;;;;;22.09;57.73;99524.88;4909133;29;20446;-79
2023/08/02 07:50:46;;;;;;;4.83;2.67;;;;;;;22.28;57.65;99524.72;4889910;29;20462;-77
2023/08/02 07:53:16;;;;;;;4.00;2.67;;;;;;;22.30;57.33;99527.97;4887608;29;20484;-78
2023/08/02 07:55:45;;;;;;;4.80;2.60;;;;;;;22.63;55.38;99520.25;4898533;29;20417;-79
2023/08/02 07:58:14;;;;;;;4.27;2.80;;;;;;;;;;4883855;29;20410;-79
2023/08/02 08:00:43;;;;;;;5.40;3.90;;;;;;;22.95;54.90;99532.94;4898624;29;20700;-79
2023/08/02 08:03:12;;;;;;;6.03;3.50;;;;;;;22.70;55.21;99520.66;4894289;29;20465;-78
2023/08/02 08:05:42;;;;;;;4.83;2.40;;;;;;;22.54;56.26;99530.41;4903724;29;20442;-79
2023/08/02 08:08:11;;;;;;;5.30;3.37;;;;;;;22.49;56.68;99522.28;4880276;29;20428;-79
2023/08/02 08:10:41;;;;;;;6.07;2.73;;;;;;;22.42;57.05;99528.22;4885880;29;20413;-79
2023/08/02 08:13:10;;;;;;;9.93;2.57;;;;;;;22.78;56.08;99533.69;4887894;29;20742;-78
2023/08/02 08:15:40;;;;;;;3.17;2.00;;;;;;;22.55;55.69;99529.31;4894038;29;20945;-79
2023/08/02 08:18:09;;;;;;;5.03;2.23;;;;;;;22.44;55.25;99527.91;4893479;29;20429;-79
2023/08/02 08:20:44;;;;;;;4.70;2.77;;;;;;;22.80;55.00;99531.41;4880954;29;20438;-78
2023/08/02 08:23:13;;;;;;;6.53;2.50;;;;;;;22.98;55.26;99526.00;4879502;29;20474;-79
2023/08/02 08:25:44;;;;;;;5.30;3.30;;;;;;;23.62;54.26;99530.84;4882865;29;20453;-80
2023/08/02 08:28:13;;;;;;;4.17;3.00;;;;;;;23.70;53.19;99532.78;4890223;29;20494;-79
2023/08/02 08:30:42;;;;;;;5.43;3.73;;;;;;;23.49;54.08;99526.22;4888754;29;20430;-78
2023/08/02 08:33:11;;;;;;;4.03;2.37;;;;;;;23.22;52.67;99526.44;4895610;29;20439;-81
2023/08/02 08:35:42;;;;;;;3.37;2.43;;;;;;;23.09;53.43;99524.59;4895577;29;20412;-81
2023/08/02 08:38:12;;;;;;;4.97;2.90;;;;;;;23.13;54.21;99522.84;4900728;29;20470;-79
2023/08/02 08:40:49;;;;;;;6.23;2.17;;;;;;;23.30;52.57;99514.59;4872295;29;20394;-79
2023/08/02 08:43:21;;;;;;;4.67;2.33;;;;;;;23.27;52.23;99512.50;4876477;29;20486;-80
2023/08/02 08:45:51;;;;;;;6.00;2.40;;;;;;;22.91;52.63;99505.19;4883357;29;20446;-78
2023/08/02 08:48:21;;;;;;;4.43;2.00;;;;;;;22.55;52.92;99501.72;4886176;29;20439;-79
2023/08/02 08:50:52;;;;;;;7.07;2.90;;;;;;;22.39;53.44;99497.72;4887240;29;20829;-79
2023/08/02 08:53:34;;;;;;;7.17;2.30;;;;;;;22.66;52.74;99494.00;4892352;29;20456;-80
2023/08/02 08:56:05;;;;;;;2.23;1.90;;;;;;;22.41;52.61;99487.22;4889563;29;20961;-78
2023/08/02 08:58:35;;;;;;;6.10;2.10;;;;;;;22.28;52.79;99486.13;4872880;29;20927;-78
2023/08/02 09:01:10;;;;;;;4.80;2.10;;;;;;;22.21;52.73;99480.25;4889690;29;20462;-79
2023/08/02 09:03:39;;;;;;;2.43;1.80;;;;;;;22.24;53.04;99474.13;4891649;29;20461;-78
2023/08/02 09:06:09;;;;;;;5.87;2.40;;;;;;;22.55;53.01;99474.16;4891551;29;20439;-79
2023/08/02 09:08:48;;;;;;;4.10;2.47;;;;;;;22.97;52.19;99472.78;4885354;29;20403;-79
2023/08/02 09:11:19;;;;;;;2.93;2.57;;;;;;;23.45;51.76;99470.03;4886109;29;20805;-78
2023/08/02 09:13:48;;;;;;;3.30;1.87;;;;;;;23.30;49.71;99479.53;4894571;29;20466;-79
2023/08/02 09:16:18;;;;;;;4.33;1.93;;;;;;;23.40;49.73;99451.66;4904543;29;20431;-79
2023/08/02 09:18:49;;;;;;;4.03;1.80;;;;;;;23.65;49.83;99457.56;4885725;29;20414;-78
2023/08/02 09:21:25;;;;;;;3.63;2.20;;;;;;;24.18;48.81;99460.03;4884429;29;20443;-77
2023/08/02 09:24:00;;;;;;;4.40;2.20;;;;;;;24.38;48.18;99453.84;4887582;29;20454;-79
2023/08/02 09:26:31;;;;;;;4.53;2.27;;;;;;;24.29;47.87;99455.81;4899751;29;20776;-79
2023/08/02 09:29:01;;;;;;;5.27;2.33;;;;;;;24.61;47.51;99458.00;4888879;29;20447;-78
2023/08/02 09:31:31;;;;;;;3.10;1.57;;;;;;;24.82;45.10;99457.31;4880763;29;20427;-79
2023/08/02 09:34:01;;;;;;;3.07;2.00;;;;;;;24.74;44.66;99458.16;4883661;29;20463;-77
2023/08/02 09:36:32;;;;;;;4.53;2.30;;;;;;;24.77;45.50;99446.41;4894353;29;20446;-77
2023/08/02 09:39:04;;;;;;;5.43;2.27;;;;;;;24.09;47.32;99450.91;4913350;29;20507;-79
2023/08/02 09:41:34;;;;;;;4.10;2.17;;;;;;;23.70;48.15;99444.41;4893624;29;20439;-79
2023/08/02 09:44:24;;;;;;;3.37;2.13;;;;;;;23.45;48.23;99436.09;4894440;23;20496;-82
2023/08/02 09:46:53;;;;;;;4.17;1.83;;;;;;;23.53;48.04;99438.88;4871042;29;20432;-81
2023/08/02 09:49:23;;;;;;;2.23;1.33;;;;;;;23.97;48.13;99434.16;4872543;29;20440;-81
2023/08/02 09:51:55;;;;;;;5.20;2.50;;;;;;;23.82;49.00;99432.72;4886724;29;20463;-81
2023/08/02 09:54:24;;;;;;;5.10;2.23;;;;;;;23.80;48.86;99433.06;4866361;29;20531;-81
2023/08/02 09:56:55;;;;;;;6.63;2.30;;;;;;;23.57;48.71;99431.59;4870593;29;20858;-81
2023/08/02 09:59:29;;;;;;;2.47;1.90;;;;;;;23.87;49.15;99427.03;4875731;29;20439;-81
2023/08/02 10:01:59;;;;;;;8.40;2.53;;;;;;;24.51;48.00;99425.19;4875466;29;20440;-80
2023/08/02 10:04:29;;;;;;;3.30;1.97;;;;;;;24.74;45.99;99416.66;4872654;29;20462;-83
2023/08/02 10:07:04;;;;;;;5.27;2.40;;;;;;;24.56;46.23;99425.00;4885050;29;20452;-82
2023/08/02 10:09:36;;;;;;;3.43;2.10;;;;;;;24.53;47.22;99420.16;4879578;29;20538;-81
2023/08/02 10:12:10;;;;;;;3.23;2.10;;;;;;;24.75;47.25;99412.72;4868794;29;20455;-81
2023/08/02 10:14:39;;;;;;;5.77;2.30;;;;;;;25.24;46.36;99414.78;4869701;29;20474;-81
2023/08/02 10:17:10;;;;;;;10.10;3.23;;;;;;;25.41;45.63;99406.41;4872389;29;20443;-81
2023/08/02 10:19:39;;;;;;;3.43;2.60;;;;;;;25.34;45.17;99403.34;4875685;29;20834;-82
2023/08/02 10:22:09;;;;;;;2.77;1.90;;;;;;;25.05;46.20;99401.41;4867196;29;20578;-82
2023/08/02 10:24:40;;;;;;;4.30;3.00;;;;;;;25.01;47.21;99405.16;4873859;29;20460;-81
2023/08/02 10:27:11;;;;;;;4.47;2.90;;;;;;;24.78;46.84;99396.31;4869240;29;20456;-82
2023/08/02 10:29:41;;;;;;;5.17;2.13;;;;;;;24.57;47.13;99390.69;4871921;29;20434;-82
2023/08/02 10:32:16;;;;;;;4.60;2.47;;;;;;;24.88;46.50;99395.16;4866030;29;20456;-81
2023/08/02 10:34:48;;;;;;;2.90;2.00;;;;;;;25.03;46.78;99392.59;4888280;29;20470;-80
2023/08/02 10:37:18;;;;;;;51.37;6.87;;;;;;;25.09;47.74;99390.47;4872188;29;20432;-82
2023/08/02 10:39:56;;;;;;;7.87;1.90;;;;;;;24.68;47.89;99389.19;4871517;29;20424;-82
2023/08/02 10:42:50;;;;;;;2.97;1.93;;;;;;;24.71;47.88;99392.41;4871290;29;20444;-81
2023/08/02 10:45:20;;;;;;;3.43;2.20;;;;;;;25.05;48.23;99383.97;4875303;29;20475;-80
2023/08/02 10:47:49;;;;;;;6.90;3.47;;;;;;;25.34;47.72;99375.66;4872446;29;20455;-80
2023/08/02 10:50:44;;;;;;;4.67;2.17;;;;;;;25.03;47.92;99366.88;4878131;29;20463;-81
2023/08/02 10:53:13;;;;;;;2.57;1.60;;;;;;;25.18;47.35;99358.00;4881245;29;20436;-80
2023/08/02 10:56:05;;;;;;;2.53;1.50;;;;;;;25.30;47.41;99358.09;4875322;29;20575;-81
2023/08/02 10:58:53;;;;;;;7.07;2.00;;;;;;;24.80;48.38;99360.81;4886742;29;21020;-81
2023/08/02 11:01:23;;;;;;;4.70;2.27;;;;;;;24.83;49.38;99367.63;4888715;29;20472;-81
2023/08/02 11:03:53;;;;;;;3.03;2.00;;;;;;;24.93;49.13;99359.00;4870086;29;20491;-81
2023/08/02 11:06:27;;;;;;;3.90;2.10;;;;;;;25.28;48.41;99346.53;4880204;29;20857;-82
2023/08/02 11:08:56;;;;;;;3.30;2.17;;;;;;;25.46;49.09;99345.25;4880334;29;20456;-82
2023/08/02 11:11:34;;;;;;;5.20;2.10;;;;;;;25.43;48.95;99347.88;4884237;29;20448;-82
2023/08/02 11:14:04;;;;;;;3.63;2.40;;;;;;;25.16;48.62;99346.47;4870971;29;20507;-83
2023/08/02 11:16:40;;;;;;;3.53;1.80;;;;;;;24.62;50.62;99318.59;4877530;29;20440;-81
2023/08/02 11:19:24;;;;;;;4.70;3.57;;;;;;;24.46;50.51;99323.06;4864042;29;20923;-81
2023/08/02 11:21:54;;;;;;;2.47;1.83;;;;;;;24.46;50.78;99316.72;4879879;29;20431;-82
2023/08/02 11:24:23;;;;;;;2.70;2.10;;;;;;;24.60;51.50;99317.28;4875369;29;20547;-82
2023/08/02 11:27:00;;;;;;;8.10;2.37;;;;;;;24.47;50.82;99319.16;4871966;29;20441;-82
2023/08/02 11:29:31;;;;;;;3.13;2.83;;;;;;;24.25;51.02;99311.91;4869079;29;20504;-82
2023/08/02 11:32:04;;;;;;;3.23;2.00;;;;;;;24.33;50.78;99295.63;4876101;29;20439;-81
2023/08/02 11:34:37;;;;;;;6.57;2.70;;;;;;;24.24;51.31;99290.16;4868581;29;20455;-82
2023/08/02 11:37:09;;;;;;;3.73;2.90;;;;;;;24.15;51.59;99286.56;4874962;29;20450;-83
2023/08/02 11:39:50;;;;;;;6.70;3.90;;;;;;;23.97;52.48;99287.75;4868485;29;20480;-81
2023/08/02 11:42:48;;;;;;;5.60;3.37;;;;;;;24.27;51.64;99291.41;4876296;29;20958;-82
2023/08/02 11:45:30;;;;;;;4.47;3.50;;;;;;;24.46;51.65;99294.59;4879309;29;20503;-82
2023/08/02 11:48:00;;;;;;;4.00;3.47;;;;;;;24.47;51.45;99285.97;4869300;29;20927;-82
2023/08/02 11:50:34;;;;;;;6.40;3.10;;;;;;;24.34;52.43;99283.44;4895881;29;20443;-80